createdAt,value
2018-08-27T00:07:14.880Z,15.2
2018-08-27T00:23:57.931Z,15.2
2018-08-27T00:40:41.021Z,15.5
2018-08-27T00:57:24.074Z,15.5
2018-08-27T01:14:06.765Z,15.5
2018-08-27T01:30:49.541Z,15.5
2018-08-27T01:47:32.367Z,15.5
2018-08-27T02:04:15.308Z,15.5
2018-08-27T02:20:58.220Z,15.5
2018-08-27T02:54:24.048Z,15.5
2018-08-27T03:11:06.668Z,14.9
2018-08-27T03:44:30.536Z,14.6
2018-08-27T04:01:12.556Z,14.6
2018-08-27T04:17:54.229Z,14.2
2018-08-27T04:34:36.111Z,14.6
2018-08-27T05:07:59.489Z,13.9
2018-08-27T05:24:40.827Z,13.6
2018-08-27T05:41:22.138Z,13.9
2018-08-27T05:58:03.573Z,13.9
2018-08-27T06:14:44.979Z,13.9
2018-08-27T06:31:26.633Z,13.9
2018-08-27T06:48:08.043Z,13.9
2018-08-27T07:04:49.817Z,14.2
2018-08-27T07:21:31.720Z,14.6
2018-08-27T07:38:14.216Z,14.9
2018-08-27T07:54:57.054Z,15.2
2018-08-27T08:11:40.331Z,15.5
2018-08-27T08:28:23.706Z,15.8
2018-08-27T08:45:07.702Z,16.5
2018-08-27T09:01:51.893Z,16.5
2018-08-27T09:18:36.125Z,16.8
2018-08-27T09:35:20.728Z,17.4
2018-08-27T09:52:05.468Z,17.4
2018-08-27T10:08:50.223Z,17.4
2018-08-27T10:28:57.288Z,18.7
2018-08-27T10:45:42.605Z,18.7
2018-08-27T10:55:46.443Z,19.4
2018-08-27T11:12:33.026Z,19.7
2018-08-27T11:29:20.363Z,20.0
2018-08-27T11:39:24.616Z,20.6
2018-08-27T11:49:29.116Z,20.0
2018-08-27T12:06:15.885Z,19.7
2018-08-27T12:19:41.620Z,20.3
2018-08-27T12:26:24.601Z,21.3
2018-08-27T12:33:08.049Z,21.6
2018-08-27T12:43:13.294Z,21.9
2018-08-27T12:49:57.001Z,22.2
2018-08-27T13:06:46.175Z,22.2
2018-08-27T13:13:29.780Z,21.6
2018-08-27T13:26:56.910Z,22.2
2018-08-27T13:43:46.022Z,21.9
2018-08-27T14:00:35.176Z,21.9
2018-08-27T14:17:24.163Z,21.9
2018-08-27T14:34:12.959Z,21.6
2018-08-27T14:51:01.527Z,21.3
2018-08-27T15:24:38.879Z,21.9
2018-08-27T15:31:22.598Z,21.3
2018-08-27T15:44:48.742Z,20.6
2018-08-27T16:01:36.839Z,20.6
2018-08-27T16:18:24.278Z,20.3
2018-08-27T16:51:58.976Z,20.0
2018-08-27T17:25:32.044Z,19.0
2018-08-27T17:42:17.987Z,18.7
2018-08-27T17:59:03.656Z,18.4
2018-08-27T18:15:50.764Z,18.1
2018-08-27T18:32:34.336Z,17.8
2018-08-27T18:49:19.609Z,17.8
2018-08-27T19:06:06.375Z,17.4
2018-08-27T19:22:51.021Z,17.4
2018-08-27T19:39:40.996Z,17.4
2018-08-27T19:56:24.902Z,17.1
2018-08-27T20:13:03.512Z,17.1
2018-08-27T20:46:32.589Z,16.8
2018-08-27T21:03:17.015Z,16.8
2018-08-27T21:20:01.419Z,16.8
2018-08-27T21:36:45.735Z,16.8
2018-08-27T22:10:14.240Z,16.8
2018-08-27T22:26:58.522Z,16.5
2018-08-27T22:43:42.861Z,16.5
2018-08-27T23:00:26.823Z,16.5
2018-08-27T23:17:11.147Z,16.5
2018-08-27T23:50:39.170Z,16.2
